Time;durP1;ratioP1;P1;durP2;ratioP2;P2;SDS_P1;SDS_P2;PMS_P1;PMS_P2;Temp;Humidity;BMP_temperature;BMP_pressure;BME280_temperature;BME280_humidity;BME280_pressure;Samples;Min_cycle;Max_cycle;Signal;HPM_P1;HPM_P2
2023/10/09 00:01:13;;;;;;;25.27;14.15;;;;;;;8.07;100.00;100412.25;5036163;28;20028;-87
2023/10/09 00:03:42;;;;;;;21.02;13.02;;;;;;;7.99;100.00;100396.88;5054294;28;20358;-88
2023/10/09 00:06:08;;;;;;;21.50;12.98;;;;;;;8.14;100.00;100437.16;5053913;28;20029;-88
2023/10/09 00:08:37;;;;;;;21.55;12.98;;;;;;;8.02;100.00;100402.00;5036017;28;20048;-88
2023/10/09 00:11:29;;;;;;;33.03;18.38;;;;;;;7.79;100.00;100373.97;5053899;28;20033;-87
2023/10/09 00:16:49;;;;;;;16.63;10.45;;;;;;;7.85;100.00;100398.94;5011850;28;20045;-88
2023/10/09 00:19:19;;;;;;;18.77;10.57;;;;;;;7.91;100.00;100396.19;5011613;28;20113;-87
2023/10/09 00:21:46;;;;;;;20.08;12.32;;;;;;;7.80;100.00;100383.50;4995274;28;20044;-87
2023/10/09 00:24:23;;;;;;;21.85;13.48;;;;;;;7.65;100.00;100363.94;5011437;28;20535;-87
2023/10/09 00:26:49;;;;;;;20.30;11.77;;;;;;;7.90;100.00;100405.72;4995332;28;20043;-88
2023/10/09 00:29:21;;;;;;;17.88;11.35;;;;;;;7.92;100.00;100387.50;4994954;28;20030;-88
2023/10/09 00:31:54;;;;;;;16.05;11.13;;;;;;;7.79;100.00;100366.22;4995185;28;20064;-88
2023/10/09 00:34:21;;;;;;;22.52;15.48;;;;;;;7.92;100.00;100398.78;4995051;28;20401;-88
2023/10/09 00:36:50;;;;;;;18.70;14.07;;;;;;;7.88;100.00;100391.94;4995097;28;20030;-87
2023/10/09 00:39:23;;;;;;;9.95;7.65;;;;;;;7.75;100.00;100367.16;5011266;28;20041;-87
2023/10/09 00:41:48;;;;;;;10.18;7.10;;;;;;;7.93;100.00;100389.25;5011299;28;20453;-87
2023/10/09 00:44:14;;;;;;;11.85;7.95;;;;;;;7.99;100.00;100382.16;5011129;28;20045;-87
2023/10/09 00:46:43;;;;;;;11.63;7.45;;;;;;;8.02;100.00;100370.00;5011387;28;20042;-87
2023/10/09 00:49:10;;;;;;;11.80;8.23;;;;;;;8.05;100.00;100362.13;5011134;28;20026;-88
2023/10/09 00:51:49;;;;;;;12.23;7.60;;;;;;;8.07;100.00;100365.56;4994778;28;20024;-88
2023/10/09 00:54:14;;;;;;;18.08;11.00;;;;;;;8.12;100.00;100353.31;5044268;28;20036;-88
2023/10/09 00:56:43;;;;;;;15.50;10.00;;;;;;;8.22;100.00;100368.63;5035218;28;20028;-87
2023/10/09 00:59:10;;;;;;;17.73;11.80;;;;;;;8.19;100.00;100354.88;5035000;28;20025;-87
2023/10/09 01:01:40;;;;;;;18.42;11.20;;;;;;;8.16;100.00;100345.41;5053003;28;20020;-88
2023/10/09 01:04:09;;;;;;;15.50;9.02;;;;;;;7.95;100.00;100307.88;5034883;28;20476;-88
2023/10/09 01:06:42;;;;;;;11.00;6.82;;;;;;;8.13;100.00;100348.09;5035054;28;20104;-88
2023/10/09 01:09:12;;;;;;;10.30;6.40;;;;;;;8.17;100.00;100354.03;5030068;28;20041;-87
2023/10/09 01:11:48;;;;;;;10.30;6.95;;;;;;;8.33;100.00;100359.69;5013974;28;20038;-87
2023/10/09 01:14:16;;;;;;;13.27;6.63;;;;;;;8.36;100.00;100362.22;5013817;28;20270;-88
2023/10/09 01:16:43;;;;;;;8.75;5.95;;;;;;;8.35;100.00;100337.16;5014043;28;20030;-88
2023/10/09 01:19:30;;;;;;;11.43;6.82;;;;;;;8.11;100.00;100291.94;5013736;28;20041;-88
2023/10/09 01:21:54;;;;;;;11.43;6.70;;;;;;;8.10;100.00;100309.25;5029683;28;20508;-87
2023/10/09 01:24:20;;;;;;;10.65;6.70;;;;;;;8.13;100.00;100310.91;5030408;28;20056;-88
2023/10/09 01:26:47;;;;;;;10.85;6.72;;;;;;;8.26;100.00;100327.88;5030421;28;20060;-87
2023/10/09 01:29:19;;;;;;;15.13;6.78;;;;;;;8.20;100.00;100320.22;5013516;28;20044;-87
2023/10/09 01:34:23;;;;;;;10.63;5.53;;;;;;;8.28;100.00;100328.66;5029930;28;20026;-88
2023/10/09 01:36:49;;;;;;;10.02;6.25;;;;;;;8.32;100.00;100327.69;5013627;28;20429;-88
2023/10/09 01:39:39;;;;;;;10.38;6.75;;;;;;;8.26;100.00;100320.09;5032847;28;20052;-88
2023/10/09 01:42:05;;;;;;;11.82;6.68;;;;;;;8.25;100.00;100308.84;5051737;28;20025;-88
2023/10/09 01:44:34;;;;;;;10.80;6.60;;;;;;;8.38;100.00;100313.72;5052340;28;20025;-87
2023/10/09 01:47:09;;;;;;;11.27;6.15;;;;;;;8.22;100.00;100298.56;5034151;28;20024;-87
2023/10/09 01:49:41;;;;;;;9.23;6.38;;;;;;;8.29;100.00;100306.16;5034286;28;20063;-88
2023/10/09 01:52:09;;;;;;;8.02;5.97;;;;;;;8.42;100.00;100320.53;5051928;28;20017;-88
2023/10/09 01:54:40;;;;;;;11.65;6.53;;;;;;;8.37;100.00;100307.69;5034204;28;20476;-88
2023/10/09 01:57:10;;;;;;;10.30;6.50;;;;;;;8.40;100.00;100314.56;5050535;28;20039;-88
2023/10/09 01:59:38;;;;;;;8.57;6.05;;;;;;;8.43;100.00;100310.13;5052036;28;20268;-87
2023/10/09 02:02:33;;;;;;;10.02;6.47;;;;;;;8.33;100.00;100292.22;5051703;28;20063;-88
2023/10/09 02:05:24;;;;;;;13.15;7.57;;;;;;;8.45;100.00;100290.16;5033699;28;20036;-88
2023/10/09 02:07:53;;;;;;;11.80;7.88;;;;;;;8.35;100.00;100262.75;5029333;28;20124;-88
2023/10/09 02:13:02;;;;;;;9.80;6.35;;;;;;;8.40;100.00;100263.50;5029682;28;20025;-87
2023/10/09 02:18:26;;;;;;;13.93;8.18;;;;;;;8.47;100.00;100264.19;5029389;28;20022;-88
2023/10/09 02:26:17;;;;;;;12.95;8.23;;;;;;;8.29;100.00;100234.34;5029437;28;20392;-88
2023/10/09 02:28:43;;;;;;;11.73;7.13;;;;;;;8.21;100.00;100224.16;5009587;28;20034;-88
2023/10/09 02:31:13;;;;;;;12.43;7.72;;;;;;;8.28;100.00;100231.81;4993128;28;20045;-87
2023/10/09 02:33:42;;;;;;;12.20;6.78;;;;;;;8.15;100.00;100202.75;5009701;28;20026;-87
2023/10/09 02:36:08;;;;;;;9.77;6.47;;;;;;;8.20;100.00;100213.84;5009477;28;20532;-88
2023/10/09 02:38:37;;;;;;;12.55;6.22;;;;;;;8.00;100.00;100176.31;4993078;28;20064;-88
2023/10/09 02:43:44;;;;;;;10.05;5.93;;;;;;;8.28;100.00;100190.28;5009632;28;20044;-88
2023/10/09 02:46:21;;;;;;;11.80;6.75;;;;;;;8.29;100.00;100187.63;5009420;28;20038;-87
2023/10/09 02:48:52;;;;;;;9.88;6.18;;;;;;;8.36;100.00;100193.50;4993139;28;20034;-87
2023/10/09 02:53:52;;;;;;;11.13;5.97;;;;;;;8.37;100.00;100200.44;5009492;28;19969;-87
2023/10/09 02:56:23;;;;;;;7.63;5.55;;;;;;;8.31;100.00;100208.38;5009147;28;20097;-88
2023/10/09 02:58:51;;;;;;;8.05;6.30;;;;;;;8.39;100.00;100202.09;5014836;28;20440;-87
2023/10/09 03:01:16;;;;;;;11.32;6.38;;;;;;;8.40;100.00;100195.16;5051042;28;20024;-88
2023/10/09 03:03:46;;;;;;;12.07;7.03;;;;;;;7.99;100.00;100121.91;5033452;28;20590;-88
2023/10/09 03:06:13;;;;;;;8.75;6.22;;;;;;;8.41;100.00;100200.28;5033306;28;20388;-88
2023/10/09 03:08:40;;;;;;;12.30;7.10;;;;;;;8.44;100.00;100186.38;5033368;28;20136;-88
2023/10/09 03:11:13;;;;;;;12.55;8.18;;;;;;;8.50;100.00;100201.75;5051146;28;20060;-87
2023/10/09 03:13:44;;;;;;;9.38;6.15;;;;;;;8.49;100.00;100208.72;5051258;28;20078;-87
2023/10/09 03:16:14;;;;;;;;;;;;;;;8.57;100.00;100205.91;5051496;28;20025;-87
2023/10/09 03:18:40;;;;;;;11.15;5.82;;;;;;;8.48;100.00;100204.41;5054616;28;20356;-88
2023/10/09 03:21:06;;;;;;;9.43;5.55;;;;;;;8.54;100.00;100195.59;5036805;28;20028;-87
2023/10/09 03:23:32;;;;;;;9.48;5.88;;;;;;;8.46;100.00;100169.00;5037073;28;20032;-87
2023/10/09 03:25:58;;;;;;;7.40;5.45;;;;;;;8.59;100.00;100177.28;5054971;28;20032;-88
2023/10/09 03:28:24;;;;;;;6.97;4.82;;;;;;;8.63;100.00;100177.13;5053391;28;20091;-88
2023/10/09 03:30:50;;;;;;;7.68;4.78;;;;;;;8.67;100.00;100162.31;5036938;28;20096;-88
2023/10/09 03:33:17;;;;;;;8.23;5.00;;;;;;;8.63;100.00;100147.72;5053282;28;20528;-88
2023/10/09 03:35:42;;;;;;;7.68;4.53;;;;;;;8.76;100.00;100156.84;5054731;28;20025;-88
2023/10/09 03:38:18;;;;;;;7.72;4.53;;;;;;;8.65;100.00;100135.56;5053201;28;20383;-88
2023/10/09 03:40:47;;;;;;;6.18;4.47;;;;;;;8.70;100.00;100131.91;5036729;28;20538;-88
2023/10/09 03:43:14;;;;;;;7.55;4.55;;;;;;;8.65;100.00;100107.00;5036401;28;20195;-88
2023/10/09 03:45:45;;;;;;;7.18;4.30;;;;;;;8.70;100.00;100110.28;5054722;28;20056;-87
2023/10/09 03:48:26;;;;;;;6.05;4.53;;;;;;;8.75;100.00;100108.41;5036511;28;20027;-88
2023/10/09 03:51:07;;;;;;;8.50;4.70;;;;;;;8.64;100.00;100084.53;5036686;28;20043;-88
2023/10/09 03:53:36;;;;;;;;;;;;;;;8.73;100.00;100095.47;5054894;28;20464;-88
2023/10/09 03:56:05;;;;;;;6.10;4.03;;;;;;;8.65;100.00;100079.28;5036532;28;20003;-88
2023/10/09 03:58:33;;;;;;;10.00;4.93;;;;;;;8.62;100.00;100063.78;5036338;28;20395;-88
2023/10/09 04:00:58;;;;;;;6.25;3.95;;;;;;;8.35;100.00;100021.38;5054105;28;20029;-87
2023/10/09 04:03:24;;;;;;;6.57;3.90;;;;;;;8.61;100.00;100062.09;5011704;28;20183;-88
2023/10/09 04:05:51;;;;;;;5.53;4.18;;;;;;;8.72;100.00;100065.22;4995643;28;20065;-87
2023/10/09 04:08:28;;;;;;;5.65;4.13;;;;;;;8.69;100.00;100046.28;4995189;28;20042;-87
2023/10/09 04:10:54;;;;;;;7.85;4.68;;;;;;;8.45;100.00;100001.19;5012013;28;20033;-88
2023/10/09 04:13:22;;;;;;;6.60;4.07;;;;;;;8.60;100.00;100036.19;4995312;28;20120;-88
2023/10/09 04:15:53;;;;;;;5.93;4.15;;;;;;;8.48;100.00;100027.91;5011974;28;20036;-88
2023/10/09 04:18:19;;;;;;;6.25;3.90;;;;;;;8.49;100.00;100023.53;4995103;28;20032;-87
2023/10/09 04:21:08;;;;;;;5.80;4.05;;;;;;;8.48;100.00;100020.09;4995514;28;20038;-87
2023/10/09 04:23:59;;;;;;;7.88;4.38;;;;;;;8.45;100.00;100020.19;5011652;28;20026;-88
2023/10/09 04:26:21;;;;;;;6.85;4.32;;;;;;;8.53;100.00;100021.72;5011534;28;20038;-88
2023/10/09 04:28:51;;;;;;;7.28;5.15;;;;;;;8.59;100.00;100039.66;5011183;28;20401;-88
2023/10/09 04:31:17;;;;;;;9.10;5.60;;;;;;;8.64;100.00;100051.63;4994827;28;20026;-88
2023/10/09 04:33:53;;;;;;;8.38;4.47;;;;;;;8.44;100.00;100018.50;5004179;28;20037;-88
2023/10/09 04:41:32;;;;;;;6.55;4.53;;;;;;;8.61;100.00;100069.03;5053121;28;20033;-88
2023/10/09 04:44:18;;;;;;;5.03;3.90;;;;;;;8.45;100.00;100040.13;5035632;28;20536;-88
2023/10/09 04:47:25;;;;;;;8.30;4.57;;;;;;;8.68;100.00;100096.50;5053407;28;20033;-88
2023/10/09 05:02:56;;;;;;;8.93;6.13;;;;;;;8.62;100.00;100078.53;5053050;28;20029;-87
2023/10/09 05:08:21;;;;;;;10.10;5.53;;;;;;;8.55;100.00;100070.06;5052852;28;20041;-88
2023/10/09 05:16:25;;;;;;;17.38;8.75;;;;;;;8.36;100.00;100049.00;5052975;28;20040;-88
2023/10/09 05:18:57;;;;;;;13.68;8.68;;;;;;;8.41;100.00;100057.53;5034900;28;20119;-88
2023/10/09 05:32:04;;;;;;;6.85;4.65;;;;;;;8.00;100.00;100010.31;5052723;28;20032;-88
2023/10/09 05:34:33;;;;;;;6.20;4.35;;;;;;;7.98;100.00;100011.28;5034316;28;20476;-87
2023/10/09 05:50:34;;;;;;;6.40;5.38;;;;;;;7.99;100.00;99982.69;5052175;28;20059;-88
2023/10/09 05:53:06;;;;;;;6.35;4.03;;;;;;;7.96;100.00;99972.41;5050871;28;20400;-87
2023/10/09 06:04:18;;;;;;;8.18;5.10;;;;;;;7.82;100.00;99964.19;5052454;28;20044;-89
2023/10/09 06:06:45;;;;;;;11.80;5.90;;;;;;;7.80;100.00;99968.59;5048705;28;20041;-90
2023/10/09 06:11:48;;;;;;;6.20;4.50;;;;;;;7.83;100.00;99950.31;5051897;28;20025;-90
2023/10/09 06:14:24;;;;;;;7.68;4.82;;;;;;;7.89;100.00;99964.88;5033982;28;20025;-88
2023/10/09 06:24:33;;;;;;;7.65;4.45;;;;;;;7.89;100.00;99944.13;5051629;28;20033;-90
2023/10/09 06:29:35;;;;;;;8.40;5.60;;;;;;;7.72;100.00;99957.59;5051473;28;20527;-89
2023/10/09 06:34:46;;;;;;;7.72;5.18;;;;;;;7.80;100.00;99947.84;5051958;28;20472;-89
2023/10/09 06:40:10;;;;;;;7.75;4.78;;;;;;;7.78;100.00;99918.50;5051503;28;20041;-89
2023/10/09 06:45:43;;;;;;;6.53;4.18;;;;;;;7.89;100.00;99907.81;5051748;28;20029;-89
2023/10/09 06:48:09;;;;;;;8.65;5.72;;;;;;;7.82;100.00;99894.19;5051128;28;20072;-89
2023/10/09 06:53:19;;;;;;;7.38;4.90;;;;;;;7.74;100.00;99890.97;5054572;28;20090;-89
2023/10/09 06:55:48;;;;;;;9.55;5.07;;;;;;;7.73;100.00;99881.50;5055377;28;20415;-88
2023/10/09 06:58:26;;;;;;;8.05;4.63;;;;;;;7.70;100.00;99847.88;5037457;28;20021;-88
2023/10/09 07:03:29;;;;;;;7.72;4.80;;;;;;;7.93;100.00;99884.31;5055269;28;20036;-89
2023/10/09 07:06:09;;;;;;;6.72;4.07;;;;;;;8.00;100.00;99895.34;5046891;28;20464;-89
2023/10/09 07:08:38;;;;;;;7.45;3.88;;;;;;;8.03;100.00;99889.22;5025007;28;20120;-89
2023/10/09 07:13:55;;;;;;;5.93;4.13;;;;;;;8.04;100.00;99875.34;4990722;28;20030;-89
2023/10/09 07:16:28;;;;;;;6.50;3.60;;;;;;;8.12;100.00;99850.00;4993159;28;20601;-89
2023/10/09 07:18:55;;;;;;;5.38;3.40;;;;;;;8.23;100.00;99856.53;4976939;28;20038;-89
2023/10/09 07:21:27;;;;;;;5.05;3.10;;;;;;;8.18;100.00;99845.47;4992939;28;20034;-89
2023/10/09 07:23:57;;;;;;;4.43;3.30;;;;;;;8.09;100.00;99843.19;4976794;28;20027;-89
2023/10/09 07:26:36;;;;;;;6.05;2.78;;;;;;;8.13;100.00;99855.16;4976820;28;20026;-89
2023/10/09 07:29:16;;;;;;;8.88;3.45;;;;;;;8.16;100.00;99843.81;4977031;28;20113;-89
2023/10/09 07:31:45;;;;;;;3.88;2.80;;;;;;;8.17;100.00;99843.75;4976086;28;20452;-88
2023/10/09 07:37:03;;;;;;;4.75;2.63;;;;;;;8.36;100.00;99861.31;4993305;28;20057;-88
2023/10/09 07:39:34;;;;;;;3.35;2.55;;;;;;;8.33;100.00;99872.63;4992759;28;20033;-89
2023/10/09 07:42:15;;;;;;;3.70;2.95;;;;;;;8.27;100.00;99856.44;4972181;28;20106;-88
2023/10/09 07:44:46;;;;;;;5.97;2.90;;;;;;;8.47;100.00;99867.00;4963748;28;20093;-88
2023/10/09 07:47:19;;;;;;;8.07;3.40;;;;;;;8.39;100.00;99869.88;4957427;28;20027;-88
2023/10/09 07:49:53;;;;;;;4.82;3.20;;;;;;;8.21;100.00;99847.94;4957550;28;20512;-88
2023/10/09 07:52:21;;;;;;;4.57;3.05;;;;;;;8.04;100.00;99852.00;5033431;28;20025;-89
2023/10/09 07:54:52;;;;;;;4.95;3.63;;;;;;;7.93;100.00;99827.25;5052980;28;20020;-89
2023/10/09 07:57:25;;;;;;;6.40;3.50;;;;;;;8.21;100.00;99854.88;5034613;28;20472;-89
2023/10/09 08:00:00;;;;;;;5.50;3.70;;;;;;;8.32;100.00;99862.31;5032342;28;20017;-88
2023/10/09 08:02:32;;;;;;;6.30;4.25;;;;;;;8.35;100.00;99852.66;5053877;28;20021;-88
2023/10/09 08:07:54;;;;;;;4.78;2.75;;;;;;;8.29;100.00;99839.03;5052782;28;20377;-88
2023/10/09 08:17:54;;;;;;;6.13;2.90;;;;;;;8.47;100.00;99841.06;5033638;28;20456;-88
2023/10/09 08:20:26;;;;;;;4.50;2.97;;;;;;;8.42;100.00;99836.00;5031311;28;20057;-89
2023/10/09 08:22:55;;;;;;;3.65;2.65;;;;;;;8.49;100.00;99831.44;5033323;28;20105;-88
2023/10/09 08:25:35;;;;;;;5.57;2.97;;;;;;;8.55;100.00;99852.00;5032331;28;20037;-89
2023/10/09 08:30:49;;;;;;;3.15;2.53;;;;;;;8.30;100.00;99832.94;5011205;28;20041;-89
2023/10/09 08:35:51;;;;;;;5.53;3.10;;;;;;;8.21;100.00;99850.53;5011579;28;20477;-89
2023/10/09 08:38:23;;;;;;;4.97;2.90;;;;;;;8.06;100.00;99835.50;4995129;28;20069;-89
2023/10/09 08:40:50;;;;;;;4.28;3.10;;;;;;;8.14;100.00;99843.03;4995131;28;20183;-89
2023/10/09 08:43:21;;;;;;;5.22;3.78;;;;;;;8.08;100.00;99830.25;5011199;28;20030;-89
2023/10/09 08:45:47;;;;;;;5.20;3.47;;;;;;;8.17;100.00;99848.09;5011523;28;20145;-89
2023/10/09 08:48:16;;;;;;;6.10;3.63;;;;;;;7.94;100.00;99841.91;5011431;28;20151;-89
2023/10/09 08:50:43;;;;;;;9.70;5.20;;;;;;;8.02;100.00;99856.41;5011127;28;20037;-88
2023/10/09 08:53:10;;;;;;;6.35;4.30;;;;;;;7.82;100.00;99818.97;5011083;28;20515;-89
2023/10/09 08:55:37;;;;;;;7.18;4.95;;;;;;;7.99;100.00;99847.81;4994530;28;20503;-89
2023/10/09 08:58:18;;;;;;;5.82;4.13;;;;;;;8.06;100.00;99845.03;5013203;28;20037;-88
2023/10/09 09:00:45;;;;;;;12.15;6.47;;;;;;;8.11;100.00;99846.56;5031531;28;20040;-89
2023/10/09 09:03:17;;;;;;;6.13;4.30;;;;;;;8.04;100.00;99865.81;5031794;28;20472;-88
2023/10/09 09:05:49;;;;;;;6.68;4.25;;;;;;;8.02;100.00;99865.03;5031521;28;20177;-89
2023/10/09 09:08:25;;;;;;;;;;;;;;;7.98;100.00;99874.63;5033331;28;20041;-89
2023/10/09 09:11:14;;;;;;;6.20;3.70;;;;;;;7.95;100.00;99871.28;5033048;28;20043;-89
2023/10/09 09:13:50;;;;;;;4.88;3.42;;;;;;;7.83;100.00;99848.34;5031399;28;20021;-89
2023/10/09 09:16:31;;;;;;;5.40;3.72;;;;;;;7.71;100.00;99813.28;5014739;28;20465;-89
2023/10/09 09:21:42;;;;;;;5.93;4.05;;;;;;;7.95;100.00;99848.78;5032454;28;20413;-89
2023/10/09 09:26:58;;;;;;;6.72;4.07;;;;;;;8.10;100.00;99869.97;5032590;28;20041;-89
2023/10/09 09:29:38;;;;;;;5.57;4.20;;;;;;;8.10;100.00;99854.41;5014704;28;20022;-88
2023/10/09 09:32:20;;;;;;;6.07;3.58;;;;;;;8.07;100.00;99838.94;5032971;28;20476;-89
2023/10/09 09:34:49;;;;;;;5.03;3.40;;;;;;;8.20;100.00;99837.59;5032435;28;20053;-89
2023/10/09 09:37:28;;;;;;;8.30;4.38;;;;;;;8.22;100.00;99821.09;5031029;28;20060;-89
2023/10/09 09:39:55;;;;;;;6.45;4.32;;;;;;;8.29;100.00;99826.06;5010127;28;20042;-88
2023/10/09 09:42:27;;;;;;;4.78;3.42;;;;;;;8.28;100.00;99824.38;5010140;28;20472;-88
2023/10/09 09:44:55;;;;;;;5.65;4.00;;;;;;;8.31;100.00;99825.13;4993852;28;20069;-88
2023/10/09 09:47:25;;;;;;;4.85;3.50;;;;;;;8.34;100.00;99840.56;5010193;28;20497;-88
2023/10/09 09:49:59;;;;;;;5.53;3.45;;;;;;;8.21;100.00;99824.56;5010125;28;20046;-89
2023/10/09 09:52:29;;;;;;;5.82;3.20;;;;;;;8.25;100.00;99833.94;4993788;28;20517;-89
2023/10/09 09:54:54;;;;;;;4.38;3.10;;;;;;;8.22;100.00;99799.50;5009865;28;20132;-89
2023/10/09 09:57:26;;;;;;;3.95;2.72;;;;;;;8.25;100.00;99786.41;5026540;28;20124;-89
2023/10/09 09:59:55;;;;;;;4.65;3.33;;;;;;;8.36;100.00;99789.47;4993554;28;20042;-89
2023/10/09 10:02:29;;;;;;;4.43;2.95;;;;;;;8.29;100.00;99771.56;4993491;28;20057;-89
2023/10/09 10:04:58;;;;;;;3.60;2.90;;;;;;;8.53;100.00;99801.03;5009990;28;20042;-89
2023/10/09 10:07:28;;;;;;;5.35;3.35;;;;;;;8.72;100.00;99808.13;5010008;28;20040;-89
2023/10/09 10:09:54;;;;;;;6.82;2.85;;;;;;;8.62;100.00;99788.56;5009797;28;20069;-89
2023/10/09 10:13:01;;;;;;;5.95;3.30;;;;;;;8.82;100.00;99798.22;5009789;28;20034;-88
2023/10/09 10:15:56;;;;;;;6.10;4.03;;;;;;;8.70;100.00;99786.53;4993306;28;20033;-89
2023/10/09 10:18:23;;;;;;;5.18;3.28;;;;;;;8.65;100.00;99772.88;4993445;28;20370;-89
2023/10/09 10:21:14;;;;;;;4.25;2.78;;;;;;;8.83;100.00;99806.88;5009433;28;20049;-88
2023/10/09 10:23:40;;;;;;;6.10;3.80;;;;;;;8.67;100.00;99778.84;4993128;28;20131;-88
2023/10/09 10:26:18;;;;;;;3.95;2.90;;;;;;;8.88;100.00;99807.53;5013428;28;20033;-89
2023/10/09 10:28:45;;;;;;;4.97;2.97;;;;;;;8.77;100.00;99807.94;5013655;28;20112;-88
2023/10/09 10:31:13;;;;;;;3.72;2.92;;;;;;;8.67;100.00;99801.38;5030409;28;20032;-88
2023/10/09 10:33:58;;;;;;;4.63;2.45;;;;;;;8.76;100.00;99819.22;5031596;28;20503;-89
2023/10/09 10:36:26;;;;;;;4.25;3.00;;;;;;;8.66;100.00;99810.09;5031801;28;20028;-88
2023/10/09 10:39:11;;;;;;;7.13;3.78;;;;;;;8.67;100.00;99812.63;5030238;28;20033;-88
2023/10/09 10:41:50;;;;;;;4.63;2.90;;;;;;;8.73;100.00;99806.38;5030144;28;20112;-89
2023/10/09 10:44:33;;;;;;;4.15;3.10;;;;;;;8.62;100.00;99788.56;5014111;28;20022;-88
2023/10/09 10:46:59;;;;;;;4.45;3.10;;;;;;;8.64;100.00;99776.41;5030472;28;20083;-89
2023/10/09 10:49:26;;;;;;;5.63;3.03;;;;;;;8.92;100.00;99786.59;5009404;28;20037;-89
2023/10/09 10:57:01;;;;;;;5.35;2.78;;;;;;;8.91;100.00;99776.25;5009480;28;20075;-89
2023/10/09 10:59:39;;;;;;;4.40;3.03;;;;;;;8.88;100.00;99766.81;5009350;28;20083;-88
2023/10/09 11:04:42;;;;;;;4.43;2.80;;;;;;;8.72;100.00;99739.72;5009203;28;20030;-89
2023/10/09 11:07:12;;;;;;;5.47;3.10;;;;;;;8.92;100.00;99771.00;5009558;28;20112;-88
2023/10/09 11:12:37;;;;;;;3.83;3.08;;;;;;;9.26;100.00;99795.69;5009203;28;20034;-89
2023/10/09 11:15:05;;;;;;;4.68;3.40;;;;;;;9.17;100.00;99776.09;5009392;28;20085;-88
2023/10/09 11:17:38;;;;;;;4.40;2.85;;;;;;;9.11;100.00;99778.09;5009017;28;20061;-89
2023/10/09 11:20:26;;;;;;;4.63;3.55;;;;;;;9.04;100.00;99792.22;5012945;28;20117;-88
2023/10/09 11:25:51;;;;;;;7.10;3.97;;;;;;;8.88;100.00;99782.41;5031272;28;20036;-89
2023/10/09 11:28:31;;;;;;;9.18;5.82;;;;;;;8.85;100.00;99764.38;5030186;28;20083;-89
2023/10/09 11:31:12;;;;;;;6.18;3.50;;;;;;;8.91;100.00;99784.06;5013455;28;20029;-88
2023/10/09 11:33:54;;;;;;;8.90;4.90;;;;;;;8.89;100.00;99767.66;5029628;28;20021;-88
2023/10/09 11:36:32;;;;;;;;;;;;;;;9.07;100.00;99779.97;5031694;28;20056;-88
2023/10/09 11:39:20;;;;;;;4.93;3.47;;;;;;;9.12;100.00;99772.00;5032185;28;20003;-89
2023/10/09 11:41:44;;;;;;;12.82;8.15;;;;;;;9.08;100.00;99768.66;5034101;28;20021;-89
2023/10/09 11:44:19;;;;;;;4.75;3.47;;;;;;;9.09;100.00;99761.72;5033294;28;20028;-88
2023/10/09 11:54:58;;;;;;;5.07;4.20;;;;;;;9.42;100.00;99782.94;5053981;28;20384;-88
2023/10/09 11:57:30;;;;;;;4.65;3.63;;;;;;;9.43;100.00;99780.28;5036096;28;20112;-88
2023/10/09 12:00:00;;;;;;;3.22;2.70;;;;;;;9.43;100.00;99758.63;5036494;28;20040;-88
2023/10/09 12:02:26;;;;;;;4.22;2.80;;;;;;;9.63;100.00;99757.84;5054110;28;20379;-88
2023/10/09 12:04:54;;;;;;;6.43;3.38;;;;;;;9.66;100.00;99779.38;5036091;28;20040;-88
2023/10/09 12:07:20;;;;;;;5.65;3.28;;;;;;;9.61;100.00;99757.91;5036407;28;20021;-89
2023/10/09 12:09:46;;;;;;;5.18;3.55;;;;;;;9.89;100.00;99781.00;5053717;28;20045;-88
2023/10/09 12:12:11;;;;;;;4.93;3.50;;;;;;;9.92;100.00;99767.03;5054021;28;20025;-88
2023/10/09 12:14:39;;;;;;;6.78;3.72;;;;;;;10.02;100.00;99759.69;5035942;28;20388;-88
2023/10/09 12:17:08;;;;;;;5.05;3.30;;;;;;;10.11;100.00;99786.19;5035381;28;20400;-89
2023/10/09 12:19:39;;;;;;;4.47;3.30;;;;;;;9.97;100.00;99746.88;5035298;28;20033;-88
2023/10/09 12:22:10;;;;;;;10.20;6.20;;;;;;;10.06;100.00;99764.69;5036035;28;20020;-88
2023/10/09 12:24:37;;;;;;;8.65;6.18;;;;;;;9.65;100.00;99741.28;5035957;28;20032;-89
2023/10/09 12:27:04;;;;;;;23.42;13.10;;;;;;;9.67;100.00;99743.78;5035511;28;20047;-89
2023/10/09 12:29:30;;;;;;;8.02;4.45;;;;;;;9.51;100.00;99725.38;5035941;28;20025;-88
2023/10/09 12:31:58;;;;;;;26.58;15.27;;;;;;;9.57;100.00;99755.50;5035840;28;20356;-88
2023/10/09 12:34:28;;;;;;;9.55;5.50;;;;;;;9.55;100.00;99754.69;5035718;28;20472;-88
2023/10/09 12:36:54;;;;;;;8.43;4.93;;;;;;;9.45;100.00;99749.88;5035227;28;20079;-88
2023/10/09 12:39:23;;;;;;;6.85;4.30;;;;;;;9.28;100.00;99720.28;5035979;28;20032;-89
2023/10/09 12:41:48;;;;;;;5.47;3.70;;;;;;;9.30;100.00;99740.09;5035373;28;20028;-89
2023/10/09 12:44:18;;;;;;;7.05;4.80;;;;;;;9.23;100.00;99702.28;5035587;28;20032;-87
2023/10/09 12:46:53;;;;;;;4.65;3.97;;;;;;;9.33;100.00;99710.53;5051855;28;20021;-89
2023/10/09 12:49:27;;;;;;;5.60;4.50;;;;;;;9.36;100.00;99713.03;5034957;28;20025;-89
2023/10/09 12:51:53;;;;;;;11.20;7.88;;;;;;;9.59;100.00;99745.88;5051873;28;20017;-88
2023/10/09 12:54:20;;;;;;;174.15;96.30;;;;;;;9.43;100.00;99720.47;5035427;28;20112;-89
2023/10/09 12:56:48;;;;;;;78.90;56.88;;;;;;;9.37;100.00;99710.34;5052979;28;20096;-89
2023/10/09 12:59:14;;;;;;;8.45;6.93;;;;;;;9.59;100.00;99740.66;5053158;28;20159;-88
2023/10/09 13:01:42;;;;;;;6.45;4.43;;;;;;;9.52;100.00;99726.22;5034962;28;20103;-89
2023/10/09 13:04:14;;;;;;;5.90;4.10;;;;;;;9.59;100.00;99727.66;5035341;28;20396;-89
2023/10/09 13:06:45;;;;;;;4.97;3.50;;;;;;;9.65;100.00;99732.59;5052811;28;20601;-88
2023/10/09 13:09:11;;;;;;;6.85;4.15;;;;;;;9.78;100.00;99731.19;5034984;28;20045;-89
2023/10/09 13:11:37;;;;;;;4.57;3.42;;;;;;;9.98;100.00;99738.13;5033785;28;20029;-89
2023/10/09 13:14:11;;;;;;;6.03;4.18;;;;;;;10.16;100.00;99742.56;5034123;28;20032;-89
2023/10/09 13:16:37;;;;;;;5.82;3.60;;;;;;;10.28;100.00;99732.56;5034825;28;20530;-89
2023/10/09 13:19:09;;;;;;;5.97;4.07;;;;;;;10.46;100.00;99740.41;5034765;28;20171;-88
2023/10/09 13:21:39;;;;;;;5.28;3.72;;;;;;;10.38;100.00;99708.66;5051544;28;20052;-89
2023/10/09 13:24:12;;;;;;;5.90;3.78;;;;;;;10.43;100.00;99698.88;5020506;28;20052;-88
2023/10/09 13:26:38;;;;;;;5.22;3.78;;;;;;;10.65;100.00;99711.75;5014919;28;20029;-88
2023/10/09 13:29:08;;;;;;;4.57;3.70;;;;;;;10.74;100.00;99706.16;5015156;28;20374;-88
2023/10/09 13:31:37;;;;;;;5.53;4.22;;;;;;;10.67;100.00;99681.28;5032809;28;20037;-88
2023/10/09 13:34:06;;;;;;;5.35;3.90;;;;;;;10.85;100.00;99700.41;5014974;28;20108;-89
2023/10/09 13:36:33;;;;;;;8.27;4.95;;;;;;;10.92;100.00;99706.19;4990497;28;20045;-89
2023/10/09 13:39:24;;;;;;;6.55;4.60;;;;;;;10.89;100.00;99701.13;4990549;28;20121;-89
2023/10/09 13:41:59;;;;;;;7.22;4.05;;;;;;;10.68;100.00;99658.69;4974278;28;20066;-89
2023/10/09 13:44:32;;;;;;;5.70;4.20;;;;;;;10.89;100.00;99685.50;4974768;28;20390;-89
2023/10/09 13:47:04;;;;;;;5.55;3.85;;;;;;;10.98;100.00;99691.09;4973918;28;20609;-89
2023/10/09 13:49:30;;;;;;;6.57;4.57;;;;;;;10.91;100.00;99673.22;4973987;28;20117;-88
2023/10/09 13:51:56;;;;;;;9.02;4.88;;;;;;;11.09;100.00;99697.59;4973675;28;20553;-89
2023/10/09 13:54:39;;;;;;;8.38;5.00;;;;;;;11.09;100.00;99703.63;4973923;28;20109;-89
2023/10/09 13:57:06;;;;;;;8.77;5.97;;;;;;;10.72;100.00;99642.84;4973802;28;20032;-89
2023/10/09 13:59:34;;;;;;;9.77;5.72;;;;;;;11.15;100.00;99723.34;4973634;28;20109;-89
2023/10/09 14:02:02;;;;;;;11.70;7.55;;;;;;;11.06;100.00;99708.16;4989236;28;20438;-89
2023/10/09 14:04:28;;;;;;;12.13;8.02;;;;;;;11.10;100.00;99720.13;4990385;28;20525;-88
2023/10/09 14:07:01;;;;;;;10.68;7.32;;;;;;;10.94;100.00;99710.41;4973848;28;20146;-89
2023/10/09 14:09:28;;;;;;;7.57;5.50;;;;;;;11.05;100.00;99735.13;4973872;28;20398;-89
2023/10/09 14:12:10;;;;;;;5.55;4.28;;;;;;;10.99;100.00;99744.91;4973730;28;20058;-89
2023/10/09 14:14:48;;;;;;;3.63;3.03;;;;;;;10.73;100.00;99719.22;5021914;28;20103;-88
2023/10/09 14:17:18;;;;;;;5.88;4.25;;;;;;;10.89;100.00;99746.25;5014225;28;20021;-89
2023/10/09 14:19:47;;;;;;;7.60;4.85;;;;;;;10.78;100.00;99732.88;5013995;28;20100;-89
2023/10/09 14:22:15;;;;;;;8.38;5.45;;;;;;;10.78;100.00;99747.66;5014183;28;20108;-89